Terminal Aerodrome Forecast
Issued by NWS

Home | Current Version | Previous Version | Text Only | Print | Product List | Glossary On
Versions: 1 2 3 4 5 6 7 8 9 10 11 12 13 14 15 16 17 18 19 20 21
000
FTUS45 KFGZ 041809 AAA
TAFGCN
TAF AMD
KGCN 041809Z 0418/0518 16008KT P6SM -SHRA BKN035 OVC060
      TEMPO 0418/0422 VRB10G20KT 5SM -TSRA BKN025CB OVC035
     FM042200 19010KT P6SM VCSH SCT025 BKN050
      TEMPO 0422/0502 VRB10G20KT 5SM -TSRA BR OVC025CB
     FM050200 VRB04KT 6SM -SHRA BR SCT020 BKN025 OVC035
      TEMPO 0512/0516 3SM RA BR OVC012=

USA.gov is the U.S. government's official web portal to all federal, state and local government web resources and services.